Terminal Aerodrome Forecast
Issued by NWS Atlanta, GA

Home | Current Version | Previous Version | Text Only | Print | Product List | Glossary On
Versions: 1 2 3 4 5 6 7 8 9 10 11 12 13 14 15
000
FTUS42 KFFC 100521
TAFCSG
TAF
KCSG 100521Z 1006/1106 36003KT P6SM SKC
     FM101200 03004KT P6SM SKC
     FM101500 06005KT P6SM SKC
     FM102300 09004KT P6SM FEW250=

USA.gov is the U.S. government's official web portal to all federal, state and local government web resources and services.